createdAt,value
2023-02-15T00:01:26.795Z,68.24
2023-02-15T00:06:25.977Z,68.58
2023-02-15T00:11:40.037Z,68.39
2023-02-15T00:16:39.362Z,68.09
2023-02-15T00:21:39.786Z,68.43
2023-02-15T00:26:40.749Z,68.62
2023-02-15T00:31:39.708Z,66.89
2023-02-15T00:36:38.665Z,66.63
2023-02-15T00:41:37.461Z,66.41
2023-02-15T00:46:38.200Z,65.81
2023-02-15T00:51:37.021Z,65.21
2023-02-15T00:56:35.980Z,64.95
2023-02-15T01:01:37.581Z,65.34
2023-02-15T01:06:36.469Z,64.84
2023-02-15T01:11:35.390Z,64.38
2023-02-15T01:16:34.290Z,64.56
2023-02-15T01:21:36.660Z,64.15
2023-02-15T01:26:35.362Z,63.92
2023-02-15T01:31:34.244Z,63.67
2023-02-15T01:36:36.306Z,63.63
2023-02-15T01:41:35.142Z,63.52
2023-02-15T01:46:37.383Z,63.54
2023-02-15T01:51:40.505Z,63.43
2023-02-15T01:56:41.983Z,64.04
2023-02-15T02:01:41.386Z,63.96
2023-02-15T02:06:42.103Z,63.95
2023-02-15T02:11:42.852Z,64.89
2023-02-15T02:16:53.643Z,63.94
2023-02-15T02:27:35.126Z,64.65
2023-02-15T02:33:03.709Z,64.89
2023-02-15T02:38:10.482Z,65.88
2023-02-15T02:43:18.025Z,65.22
2023-02-15T02:48:22.216Z,64.17
2023-02-15T02:53:21.614Z,64.05
2023-02-15T02:58:27.215Z,64.11
2023-02-15T03:03:46.890Z,63.17
2023-02-15T03:08:48.758Z,63.51
2023-02-15T03:13:52.405Z,63.50
2023-02-15T03:18:59.329Z,63.65
2023-02-15T03:24:02.950Z,63.34
2023-02-15T03:29:06.004Z,63.56
2023-02-15T03:34:08.913Z,63.33
2023-02-15T03:39:14.140Z,63.70
2023-02-15T03:44:19.021Z,63.49
2023-02-15T03:49:24.082Z,63.46
2023-02-15T03:54:45.758Z,63.78
2023-02-15T04:00:02.155Z,64.18
2023-02-15T04:05:11.948Z,64.59
2023-02-15T04:10:28.538Z,64.33
2023-02-15T04:15:44.987Z,63.94
2023-02-15T04:21:05.300Z,64.69
2023-02-15T04:26:05.681Z,65.46
2023-02-15T04:31:04.590Z,64.89
2023-02-15T04:36:05.202Z,65.53
2023-02-15T04:41:03.908Z,65.46
2023-02-15T04:46:03.317Z,65.73
2023-02-15T04:51:07.006Z,65.00
2023-02-15T04:56:07.255Z,65.02
2023-02-15T05:01:06.081Z,65.26
2023-02-15T05:06:05.407Z,66.09
2023-02-15T05:11:04.180Z,65.73
2023-02-15T05:16:04.487Z,66.16
2023-02-15T05:21:03.447Z,66.39
2023-02-15T05:26:19.360Z,66.70
2023-02-15T05:31:21.276Z,66.39
2023-02-15T05:36:20.257Z,66.88
2023-02-15T05:41:19.058Z,66.50
2023-02-15T05:46:19.277Z,67.09
2023-02-15T05:51:18.120Z,67.96
2023-02-15T05:56:16.884Z,68.82
2023-02-15T06:01:18.266Z,68.05
2023-02-15T06:06:18.801Z,68.02
2023-02-15T06:11:18.130Z,67.20
2023-02-15T06:16:17.372Z,67.71
2023-02-15T06:21:16.386Z,67.04
2023-02-15T06:26:16.560Z,66.74
2023-02-15T06:31:15.362Z,66.25
2023-02-15T06:36:14.673Z,67.05
2023-02-15T06:41:13.416Z,66.85
2023-02-15T06:46:13.573Z,66.33
2023-02-15T06:51:12.314Z,66.27
2023-02-15T06:56:12.739Z,66.17
2023-02-15T07:01:13.188Z,66.45
2023-02-15T07:06:12.466Z,67.00
2023-02-15T07:11:28.475Z,66.67
2023-02-15T07:16:29.189Z,68.51
2023-02-15T07:21:28.302Z,69.02
2023-02-15T07:26:27.196Z,70.69
2023-02-15T07:31:26.320Z,69.04
2023-02-15T07:36:26.540Z,69.03
2023-02-15T07:41:25.700Z,70.20
2023-02-15T07:46:24.548Z,71.08
2023-02-15T07:51:23.375Z,70.86
2023-02-15T07:56:23.540Z,70.67
2023-02-15T08:01:25.299Z,71.12
2023-02-15T08:06:25.561Z,70.86
2023-02-15T08:11:27.357Z,71.08
2023-02-15T08:16:30.854Z,72.19
2023-02-15T08:21:31.138Z,73.28
2023-02-15T08:26:32.045Z,72.89
2023-02-15T08:31:31.364Z,71.84
2023-02-15T08:36:32.757Z,71.84
2023-02-15T08:41:35.108Z,71.96
2023-02-15T08:46:35.889Z,70.82
2023-02-15T08:51:36.620Z,69.81
2023-02-15T08:56:38.804Z,69.60
2023-02-15T09:01:37.633Z,68.86
2023-02-15T09:06:37.166Z,66.93
2023-02-15T09:11:39.049Z,64.96
2023-02-15T09:16:40.111Z,62.07
2023-02-15T09:21:40.700Z,60.82
2023-02-15T09:26:42.813Z,59.54
2023-02-15T09:31:45.390Z,58.49
2023-02-15T09:36:44.389Z,55.91
2023-02-15T09:42:07.964Z,54.62
2023-02-15T09:47:26.328Z,52.55
2023-02-15T09:52:41.305Z,51.32
2023-02-15T09:57:48.818Z,50.64
2023-02-15T10:03:05.892Z,50.65
2023-02-15T10:08:28.653Z,48.48
2023-02-15T10:13:41.994Z,47.77
2023-02-15T10:19:04.977Z,46.42
2023-02-15T10:24:19.844Z,46.58
2023-02-15T10:29:30.673Z,45.08
2023-02-15T10:34:39.382Z,44.52
2023-02-15T10:39:47.435Z,45.47
2023-02-15T10:45:04.539Z,43.99
2023-02-15T10:50:27.607Z,43.48
2023-02-15T10:55:40.457Z,43.44
2023-02-15T11:00:47.240Z,43.40
2023-02-15T11:05:56.077Z,44.09
2023-02-15T11:11:02.104Z,44.16
2023-02-15T11:16:06.823Z,42.99
2023-02-15T11:21:09.711Z,41.99
2023-02-15T11:26:15.175Z,40.77
2023-02-15T11:31:20.405Z,40.13
2023-02-15T11:36:23.570Z,40.14
2023-02-15T11:41:26.500Z,38.58
2023-02-15T11:46:26.526Z,36.83
2023-02-15T11:51:25.490Z,37.45
2023-02-15T11:56:26.740Z,36.03
2023-02-15T12:01:33.014Z,34.96
2023-02-15T12:06:35.848Z,35.45
2023-02-15T12:11:39.110Z,35.77
2023-02-15T12:16:46.985Z,34.16
2023-02-15T12:21:45.995Z,34.18
2023-02-15T12:26:46.206Z,34.25
2023-02-15T12:31:48.995Z,32.21
2023-02-15T12:36:51.864Z,31.20
2023-02-15T12:42:04.410Z,32.87
2023-02-15T12:47:06.728Z,32.10
2023-02-15T12:52:09.091Z,32.38
2023-02-15T12:57:25.705Z,32.09
2023-02-15T13:02:30.310Z,31.01
2023-02-15T13:07:34.251Z,30.09
2023-02-15T13:12:36.468Z,31.11
2023-02-15T13:17:36.673Z,30.36
2023-02-15T13:22:44.145Z,29.74
2023-02-15T13:27:46.653Z,29.56
2023-02-15T13:32:47.451Z,28.71
2023-02-15T13:38:24.857Z,29.86
2023-02-15T13:43:37.631Z,29.67
2023-02-15T13:48:50.566Z,29.21
2023-02-15T13:54:11.360Z,29.67
2023-02-15T13:59:27.259Z,29.19
2023-02-15T14:04:48.135Z,29.14
2023-02-15T14:10:01.471Z,28.38
2023-02-15T14:15:40.024Z,30.34
2023-02-15T14:20:59.352Z,30.19
2023-02-15T14:26:04.312Z,30.73
2023-02-15T14:31:09.027Z,30.56
2023-02-15T14:36:16.464Z,29.55
2023-02-15T14:41:22.006Z,29.15
2023-02-15T14:46:30.019Z,28.69
2023-02-15T14:52:03.418Z,28.95
2023-02-15T14:57:27.679Z,29.81
2023-02-15T15:02:49.915Z,30.21
2023-02-15T15:07:53.296Z,30.16
2023-02-15T15:13:44.483Z,31.11
2023-02-15T15:18:49.078Z,30.88
2023-02-15T15:23:57.228Z,31.50
2023-02-15T15:29:03.647Z,31.25
2023-02-15T15:34:24.184Z,31.63
2023-02-15T15:39:55.408Z,32.27
2023-02-15T15:45:21.943Z,33.28
2023-02-15T15:50:22.432Z,33.41
2023-02-15T15:55:24.956Z,34.22
2023-02-15T16:00:38.489Z,34.97
2023-02-15T16:05:39.818Z,35.75
2023-02-15T16:10:41.064Z,36.47
2023-02-15T16:15:51.098Z,37.02
2023-02-15T16:20:54.674Z,37.40
2023-02-15T16:26:05.209Z,37.99
2023-02-15T16:31:12.838Z,38.64
2023-02-15T16:36:22.062Z,39.11
2023-02-15T16:41:25.521Z,44.34
2023-02-15T16:46:28.962Z,40.86
2023-02-15T16:51:31.014Z,40.82
2023-02-15T16:56:33.398Z,41.15
2023-02-15T17:01:35.505Z,41.68
2023-02-15T17:06:36.457Z,41.89
2023-02-15T17:11:39.058Z,42.38
2023-02-15T17:16:42.946Z,42.71
2023-02-15T17:21:44.861Z,42.99
2023-02-15T17:26:45.513Z,43.17
2023-02-15T17:31:51.218Z,43.39
2023-02-15T17:37:00.457Z,43.85
2023-02-15T17:42:00.655Z,43.83
2023-02-15T17:46:59.830Z,44.29
2023-02-15T17:51:59.367Z,44.42
2023-02-15T17:57:03.442Z,44.87
2023-02-15T18:02:20.948Z,44.70
2023-02-15T18:07:37.607Z,44.87
2023-02-15T18:12:38.677Z,45.24
2023-02-15T18:17:42.054Z,45.10
2023-02-15T18:22:41.112Z,45.53
2023-02-15T18:27:39.963Z,45.73
2023-02-15T18:32:41.440Z,45.86
2023-02-15T18:37:40.383Z,46.09
2023-02-15T18:42:44.489Z,46.09
2023-02-15T18:47:44.968Z,46.09
2023-02-15T18:52:46.667Z,46.20
2023-02-15T18:57:48.643Z,47.61
2023-02-15T19:02:49.961Z,47.70
2023-02-15T19:07:49.664Z,47.47
2023-02-15T19:12:49.772Z,47.52
2023-02-15T19:17:50.009Z,47.29
2023-02-15T19:22:50.520Z,47.29
2023-02-15T19:27:49.757Z,47.28
2023-02-15T19:32:50.342Z,47.62
2023-02-15T19:37:54.630Z,47.63
2023-02-15T19:42:54.291Z,48.12
2023-02-15T19:47:57.165Z,48.31
2023-02-15T19:52:56.193Z,48.25
2023-02-15T19:57:56.758Z,48.19
2023-02-15T20:02:59.246Z,48.19
2023-02-15T20:07:58.884Z,48.36
2023-02-15T20:12:58.692Z,48.54
2023-02-15T20:18:00.186Z,48.50
2023-02-15T20:22:59.056Z,48.53
2023-02-15T20:28:42.770Z,48.98
2023-02-15T20:33:59.782Z,49.08
2023-02-15T20:39:02.183Z,49.54
2023-02-15T20:44:01.240Z,49.15
2023-02-15T20:49:01.361Z,49.85
2023-02-15T20:54:00.116Z,49.60
2023-02-15T20:58:58.940Z,49.91
2023-02-15T21:03:57.893Z,50.04
2023-02-15T21:08:58.179Z,50.13
2023-02-15T21:13:57.009Z,50.13
2023-02-15T21:18:55.811Z,50.18
2023-02-15T21:23:55.155Z,50.35
2023-02-15T21:28:57.728Z,51.03
2023-02-15T21:33:56.630Z,51.12
2023-02-15T21:38:55.489Z,51.26
2023-02-15T21:44:13.240Z,51.25
2023-02-15T21:49:11.936Z,51.98
2023-02-15T21:54:13.814Z,51.93
2023-02-15T21:59:16.044Z,51.99
2023-02-15T22:04:16.635Z,51.79
2023-02-15T22:09:17.393Z,51.78
2023-02-15T22:14:35.773Z,55.36
2023-02-15T22:19:38.229Z,55.26
2023-02-15T22:24:36.992Z,55.18
2023-02-15T22:29:37.124Z,54.62
2023-02-15T22:34:35.928Z,54.38
2023-02-15T22:39:34.708Z,54.23
2023-02-15T22:44:36.499Z,54.52
2023-02-15T22:49:35.342Z,54.54
2023-02-15T22:54:34.063Z,54.07
2023-02-15T22:59:34.248Z,53.93
2023-02-15T23:04:34.608Z,53.80
2023-02-15T23:09:33.554Z,55.16
2023-02-15T23:14:35.606Z,54.81
2023-02-15T23:19:35.732Z,54.46
2023-02-15T23:24:34.680Z,54.34
2023-02-15T23:29:33.385Z,54.35
2023-02-15T23:34:32.245Z,54.63
2023-02-15T23:39:50.045Z,55.06
2023-02-15T23:44:51.899Z,54.37
2023-02-15T23:49:50.675Z,54.07
2023-02-15T23:54:51.043Z,54.13
2023-02-15T23:59:52.786Z,53.87
